createdAt,value
2023-01-15T00:04:06.533Z,60.28
2023-01-15T00:09:14.426Z,59.84
2023-01-15T00:14:16.430Z,61.06
2023-01-15T00:19:18.416Z,60.98
2023-01-15T00:24:40.181Z,61.34
2023-01-15T00:29:42.152Z,61.20
2023-01-15T00:34:44.144Z,61.14
2023-01-15T00:39:47.519Z,60.46
2023-01-15T00:44:49.706Z,59.46
2023-01-15T00:49:51.676Z,60.23
2023-01-15T00:54:55.060Z,60.86
2023-01-15T00:59:57.035Z,61.69
2023-01-15T01:04:58.988Z,61.95
2023-01-15T01:10:02.288Z,60.60
2023-01-15T01:15:05.058Z,60.37
2023-01-15T01:20:08.864Z,60.97
2023-01-15T01:25:12.151Z,60.51
2023-01-15T01:30:15.082Z,60.78
2023-01-15T01:35:17.270Z,60.87
2023-01-15T01:40:20.644Z,60.52
2023-01-15T01:45:26.878Z,59.93
2023-01-15T01:50:31.172Z,61.58
2023-01-15T01:55:36.284Z,61.56
2023-01-15T02:00:43.069Z,62.25
2023-01-15T02:05:50.384Z,62.56
2023-01-15T02:10:56.161Z,62.13
2023-01-15T02:16:06.046Z,62.16
2023-01-15T02:21:15.525Z,63.09
2023-01-15T02:26:38.935Z,62.48
2023-01-15T02:31:44.171Z,60.82
2023-01-15T02:36:50.456Z,60.60
2023-01-15T02:41:59.282Z,60.09
2023-01-15T02:47:04.418Z,58.86
2023-01-15T02:52:10.195Z,59.44
2023-01-15T02:57:16.087Z,57.92
2023-01-15T03:02:22.791Z,59.09
2023-01-15T03:07:32.012Z,58.44
2023-01-15T03:13:02.261Z,59.28
2023-01-15T03:18:07.901Z,60.36
2023-01-15T03:23:13.852Z,59.13
2023-01-15T03:28:22.787Z,59.90
2023-01-15T03:33:26.377Z,60.45
2023-01-15T03:38:30.914Z,60.79
2023-01-15T03:43:41.503Z,60.00
2023-01-15T03:48:51.215Z,60.60
2023-01-15T03:53:56.040Z,61.70
2023-01-15T03:59:03.991Z,60.73
2023-01-15T04:04:06.569Z,61.58
2023-01-15T04:09:11.881Z,61.91
2023-01-15T04:14:15.503Z,62.47
2023-01-15T04:19:17.469Z,62.40
2023-01-15T04:24:19.408Z,61.09
2023-01-15T04:29:22.805Z,60.92
2023-01-15T04:34:25.575Z,61.78
2023-01-15T04:39:27.545Z,61.03
2023-01-15T04:44:32.927Z,61.49
2023-01-15T04:49:35.185Z,59.98
2023-01-15T04:54:37.181Z,61.17
2023-01-15T04:59:40.512Z,61.89
2023-01-15T05:04:42.574Z,60.81
2023-01-15T05:09:44.719Z,60.54
2023-01-15T05:14:48.427Z,60.07
2023-01-15T05:19:50.392Z,61.06
2023-01-15T05:24:52.338Z,61.16
2023-01-15T05:29:55.615Z,59.65
2023-01-15T05:34:57.718Z,62.48
2023-01-15T05:39:59.671Z,61.36
2023-01-15T05:45:03.596Z,61.91
2023-01-15T05:50:06.287Z,62.05
2023-01-15T05:55:09.085Z,62.67
2023-01-15T06:00:14.097Z,60.96
2023-01-15T06:05:19.996Z,62.68
2023-01-15T06:10:21.965Z,61.74
2023-01-15T06:15:25.273Z,62.85
2023-01-15T06:20:27.258Z,63.17
2023-01-15T06:25:29.266Z,62.95
2023-01-15T06:30:32.831Z,62.41
2023-01-15T06:35:35.105Z,61.43
2023-01-15T06:40:37.227Z,61.81
2023-01-15T06:45:59.644Z,61.92
2023-01-15T06:51:01.470Z,62.19
2023-01-15T06:56:03.505Z,59.96
2023-01-15T07:01:12.016Z,59.02
2023-01-15T07:06:14.079Z,59.90
2023-01-15T07:11:17.679Z,60.92
2023-01-15T07:16:27.662Z,59.37
2023-01-15T07:21:30.828Z,58.10
2023-01-15T07:26:33.111Z,58.47
2023-01-15T07:31:36.612Z,58.63
2023-01-15T07:36:38.801Z,58.00
2023-01-15T07:41:59.503Z,58.60
2023-01-15T07:47:22.036Z,57.67
2023-01-15T07:52:24.015Z,55.54
2023-01-15T07:57:25.962Z,56.39
2023-01-15T08:02:29.329Z,58.34
2023-01-15T08:07:36.186Z,56.47
2023-01-15T08:12:57.658Z,56.68
2023-01-15T08:18:01.104Z,57.31
2023-01-15T08:23:03.233Z,55.95
2023-01-15T08:28:05.457Z,55.80
2023-01-15T08:33:08.998Z,55.47
2023-01-15T08:38:11.085Z,54.81
2023-01-15T08:43:13.202Z,54.20
2023-01-15T08:48:16.515Z,54.83
2023-01-15T08:53:20.371Z,56.20
2023-01-15T08:58:22.905Z,53.50
2023-01-15T09:03:26.189Z,54.20
2023-01-15T09:08:29.299Z,53.90
2023-01-15T09:13:31.592Z,53.15
2023-01-15T09:18:36.028Z,52.43
2023-01-15T09:23:38.616Z,52.35
2023-01-15T09:28:40.612Z,52.38
2023-01-15T09:33:43.925Z,53.42
2023-01-15T09:38:46.087Z,51.67
2023-01-15T09:43:56.500Z,52.39
2023-01-15T09:49:14.844Z,53.13
2023-01-15T09:54:42.892Z,53.05
2023-01-15T09:59:47.886Z,52.62
2023-01-15T10:04:56.788Z,53.88
2023-01-15T10:10:02.967Z,53.45
2023-01-15T10:15:15.499Z,53.41
2023-01-15T10:20:35.054Z,56.17
2023-01-15T10:25:46.894Z,53.70
2023-01-15T10:30:53.207Z,55.13
2023-01-15T10:36:00.832Z,56.08
2023-01-15T10:41:18.200Z,55.80
2023-01-15T10:46:27.075Z,57.04
2023-01-15T10:51:34.818Z,55.40
2023-01-15T10:56:41.204Z,56.27
2023-01-15T11:01:43.311Z,56.32
2023-01-15T11:06:46.985Z,57.92
2023-01-15T11:12:00.900Z,58.23
2023-01-15T11:17:08.961Z,59.94
2023-01-15T11:22:14.889Z,59.92
2023-01-15T11:27:20.117Z,60.49
2023-01-15T11:32:28.223Z,60.40
2023-01-15T11:37:31.596Z,61.63
2023-01-15T11:42:55.208Z,61.10
2023-01-15T11:48:16.146Z,62.83
2023-01-15T11:53:23.936Z,61.66
2023-01-15T11:58:27.952Z,60.33
2023-01-15T12:03:34.610Z,61.46
2023-01-15T12:08:51.723Z,61.10
2023-01-15T12:14:02.282Z,59.91
2023-01-15T12:19:15.481Z,59.90
2023-01-15T12:24:34.750Z,60.51
2023-01-15T12:29:44.651Z,60.44
2023-01-15T12:34:51.745Z,59.30
2023-01-15T12:39:59.093Z,62.38
2023-01-15T12:45:04.888Z,61.17
2023-01-15T12:50:22.402Z,62.77
2023-01-15T12:55:29.189Z,63.83
2023-01-15T13:00:37.882Z,63.62
2023-01-15T13:05:47.691Z,64.03
2023-01-15T13:10:51.265Z,64.38
2023-01-15T13:16:09.673Z,64.14
2023-01-15T13:21:14.360Z,64.49
2023-01-15T13:26:34.563Z,64.61
2023-01-15T13:31:52.907Z,65.59
2023-01-15T13:36:59.309Z,65.90
2023-01-15T13:42:22.467Z,65.45
2023-01-15T13:47:28.027Z,65.24
2023-01-15T13:52:33.202Z,65.60
2023-01-15T13:57:40.340Z,67.00
2023-01-15T14:02:52.103Z,67.48
2023-01-15T14:07:54.270Z,67.24
2023-01-15T14:13:13.632Z,68.26
2023-01-15T14:18:27.496Z,68.53
2023-01-15T14:23:58.478Z,69.96
2023-01-15T14:29:15.934Z,68.79
2023-01-15T14:34:22.072Z,69.43
2023-01-15T14:39:32.241Z,69.67
2023-01-15T14:44:44.100Z,70.25
2023-01-15T14:49:49.772Z,69.75
2023-01-15T14:54:53.008Z,70.82
2023-01-15T15:00:00.685Z,70.38
2023-01-15T15:05:08.900Z,69.83
2023-01-15T15:10:21.237Z,70.73
2023-01-15T15:15:39.501Z,70.40
2023-01-15T15:20:51.538Z,70.36
2023-01-15T15:25:56.539Z,70.05
2023-01-15T15:31:01.614Z,69.13
2023-01-15T15:36:05.475Z,69.82
2023-01-15T15:41:10.985Z,69.30
2023-01-15T15:46:44.635Z,69.81
2023-01-15T15:51:50.648Z,69.89
2023-01-15T15:56:59.240Z,70.66
2023-01-15T16:02:16.517Z,70.26
2023-01-15T16:07:25.162Z,69.78
2023-01-15T16:12:30.582Z,71.19
2023-01-15T16:17:35.067Z,72.46
2023-01-15T16:22:37.214Z,73.97
2023-01-15T16:27:39.242Z,73.73
2023-01-15T16:32:44.509Z,74.92
2023-01-15T16:37:48.785Z,75.67
2023-01-15T16:43:02.635Z,75.98
2023-01-15T16:48:25.600Z,77.13
2023-01-15T16:53:31.463Z,78.54
2023-01-15T16:58:36.453Z,79.36
2023-01-15T17:03:41.082Z,81.86
2023-01-15T17:08:47.327Z,80.46
2023-01-15T17:13:49.389Z,82.08
2023-01-15T17:18:52.852Z,81.20
2023-01-15T17:23:56.617Z,82.50
2023-01-15T17:28:58.877Z,81.50
2023-01-15T17:34:03.507Z,82.31
2023-01-15T17:39:05.587Z,82.01
2023-01-15T17:44:09.567Z,82.46
2023-01-15T17:49:12.931Z,82.33
2023-01-15T17:54:34.895Z,81.57
2023-01-15T17:59:55.491Z,82.59
2023-01-15T18:05:17.782Z,80.51
2023-01-15T18:10:21.139Z,82.83
2023-01-15T18:15:23.111Z,80.88
2023-01-15T18:20:26.432Z,79.57
2023-01-15T18:25:28.577Z,82.41
2023-01-15T18:30:32.319Z,82.30
2023-01-15T18:35:35.512Z,81.78
2023-01-15T18:40:37.488Z,81.78
2023-01-15T18:45:57.994Z,81.70
2023-01-15T18:51:07.866Z,83.40
2023-01-15T18:56:09.864Z,84.09
2023-01-15T19:01:12.668Z,83.39
2023-01-15T19:06:16.092Z,83.06
2023-01-15T19:11:18.229Z,83.12
2023-01-15T19:16:38.918Z,83.32
2023-01-15T19:21:42.959Z,83.05
2023-01-15T19:26:45.037Z,83.24
2023-01-15T19:31:47.087Z,83.22
2023-01-15T19:36:50.619Z,83.29
2023-01-15T19:42:11.421Z,83.29
2023-01-15T19:47:33.411Z,82.74
2023-01-15T19:52:37.718Z,83.14
2023-01-15T19:57:39.946Z,83.95
2023-01-15T20:02:42.329Z,83.09
2023-01-15T20:07:45.806Z,82.53
2023-01-15T20:13:06.742Z,83.24
2023-01-15T20:18:08.765Z,83.28
2023-01-15T20:23:12.118Z,83.13
2023-01-15T20:28:14.193Z,82.47
2023-01-15T20:33:16.195Z,81.54
2023-01-15T20:38:19.688Z,80.68
2023-01-15T20:43:40.564Z,79.80
2023-01-15T20:49:01.328Z,79.50
2023-01-15T20:54:04.773Z,80.12
2023-01-15T20:59:06.763Z,79.41
2023-01-15T21:04:09.811Z,79.76
2023-01-15T21:09:13.159Z,78.68
2023-01-15T21:14:15.512Z,77.06
2023-01-15T21:19:17.583Z,78.29
2023-01-15T21:24:21.113Z,78.13
2023-01-15T21:29:24.285Z,77.05
2023-01-15T21:34:26.478Z,77.36
2023-01-15T21:39:29.788Z,78.59
2023-01-15T21:44:32.725Z,79.73
2023-01-15T21:49:35.072Z,77.93
2023-01-15T21:54:38.471Z,77.81
2023-01-15T21:59:41.100Z,77.26
2023-01-15T22:04:45.987Z,77.48
2023-01-15T22:09:49.373Z,78.59
2023-01-15T22:14:53.624Z,76.64
2023-01-15T22:19:55.653Z,77.81
2023-01-15T22:24:59.080Z,78.03
2023-01-15T22:30:01.335Z,77.49
2023-01-15T22:35:03.651Z,76.27
2023-01-15T22:40:08.804Z,76.14
2023-01-15T22:45:10.844Z,74.51
2023-01-15T22:50:12.838Z,76.45
2023-01-15T22:55:16.305Z,76.50
2023-01-15T23:00:18.622Z,75.63
2023-01-15T23:05:21.070Z,77.60
2023-01-15T23:10:24.369Z,75.56
2023-01-15T23:15:26.628Z,76.84
2023-01-15T23:20:28.637Z,78.26
2023-01-15T23:25:31.923Z,77.57
2023-01-15T23:30:33.938Z,78.59
2023-01-15T23:35:35.929Z,77.81
2023-01-15T23:40:40.726Z,79.10
2023-01-15T23:46:01.449Z,78.23
2023-01-15T23:51:03.702Z,79.00
2023-01-15T23:56:08.055Z,79.34
